sensor_id;sensor_type;location;lat;lon;timestamp;P1;durP1;ratioP1;P2;durP2;ratioP2
1507;SDS011;745;48.586;10.032;2022-08-01T00:04:16;3.23;;;2.80;;
1507;SDS011;745;48.586;10.032;2022-08-01T00:08:46;3.30;;;3.00;;
1507;SDS011;745;48.586;10.032;2022-08-01T00:13:17;3.03;;;2.70;;
1507;SDS011;745;48.586;10.032;2022-08-01T00:17:47;2.80;;;2.60;;
1507;SDS011;745;48.586;10.032;2022-08-01T00:22:18;3.40;;;3.10;;
1507;SDS011;745;48.586;10.032;2022-08-01T00:26:48;3.50;;;3.20;;
1507;SDS011;745;48.586;10.032;2022-08-01T00:31:19;3.30;;;3.00;;
1507;SDS011;745;48.586;10.032;2022-08-01T00:35:49;3.50;;;3.20;;
1507;SDS011;745;48.586;10.032;2022-08-01T00:40:33;3.70;;;3.40;;
1507;SDS011;745;48.586;10.032;2022-08-01T00:45:16;3.33;;;3.03;;
1507;SDS011;745;48.586;10.032;2022-08-01T00:49:46;2.60;;;2.40;;
1507;SDS011;745;48.586;10.032;2022-08-01T00:54:17;2.63;;;2.43;;
1507;SDS011;745;48.586;10.032;2022-08-01T00:58:47;2.53;;;2.33;;
1507;SDS011;745;48.586;10.032;2022-08-01T01:03:18;2.57;;;2.37;;
1507;SDS011;745;48.586;10.032;2022-08-01T01:16:59;3.20;;;3.00;;
1507;SDS011;745;48.586;10.032;2022-08-01T01:21:33;3.87;;;3.57;;
1507;SDS011;745;48.586;10.032;2022-08-01T01:30:53;3.87;;;3.50;;
1507;SDS011;745;48.586;10.032;2022-08-01T01:35:27;3.73;;;3.43;;
1507;SDS011;745;48.586;10.032;2022-08-01T01:39:59;3.07;;;2.87;;
1507;SDS011;745;48.586;10.032;2022-08-01T01:44:31;3.23;;;3.03;;
1507;SDS011;745;48.586;10.032;2022-08-01T01:49:02;3.60;;;3.30;;
1507;SDS011;745;48.586;10.032;2022-08-01T01:53:34;3.40;;;3.10;;
1507;SDS011;745;48.586;10.032;2022-08-01T01:58:06;3.60;;;3.30;;
1507;SDS011;745;48.586;10.032;2022-08-01T02:02:37;2.93;;;2.73;;
1507;SDS011;745;48.586;10.032;2022-08-01T02:07:09;3.63;;;3.33;;
1507;SDS011;745;48.586;10.032;2022-08-01T02:11:40;4.40;;;3.70;;
1507;SDS011;745;48.586;10.032;2022-08-01T02:16:11;3.60;;;3.30;;
1507;SDS011;745;48.586;10.032;2022-08-01T02:20:42;3.63;;;3.33;;
1507;SDS011;745;48.586;10.032;2022-08-01T02:25:19;3.80;;;3.37;;
1507;SDS011;745;48.586;10.032;2022-08-01T02:30:03;5.10;;;3.17;;
1507;SDS011;745;48.586;10.032;2022-08-01T02:34:36;3.80;;;3.50;;
1507;SDS011;745;48.586;10.032;2022-08-01T02:39:08;3.83;;;3.53;;
1507;SDS011;745;48.586;10.032;2022-08-01T02:43:42;3.90;;;3.60;;
1507;SDS011;745;48.586;10.032;2022-08-01T02:48:14;4.50;;;3.90;;
1507;SDS011;745;48.586;10.032;2022-08-01T02:52:47;3.70;;;3.40;;
1507;SDS011;745;48.586;10.032;2022-08-01T02:57:18;3.70;;;3.40;;
1507;SDS011;745;48.586;10.032;2022-08-01T03:01:51;3.70;;;3.40;;
1507;SDS011;745;48.586;10.032;2022-08-01T03:06:25;4.13;;;3.73;;
1507;SDS011;745;48.586;10.032;2022-08-01T03:10:56;3.90;;;3.60;;
1507;SDS011;745;48.586;10.032;2022-08-01T03:15:30;3.80;;;3.50;;
1507;SDS011;745;48.586;10.032;2022-08-01T03:20:02;4.70;;;3.90;;
1507;SDS011;745;48.586;10.032;2022-08-01T03:24:34;4.30;;;4.00;;
1507;SDS011;745;48.586;10.032;2022-08-01T03:29:08;4.10;;;3.80;;
1507;SDS011;745;48.586;10.032;2022-08-01T03:33:43;4.53;;;4.00;;
1507;SDS011;745;48.586;10.032;2022-08-01T03:38:13;3.47;;;3.17;;
1507;SDS011;745;48.586;10.032;2022-08-01T03:42:52;3.80;;;3.50;;
1507;SDS011;745;48.586;10.032;2022-08-01T03:47:26;4.53;;;3.97;;
1507;SDS011;745;48.586;10.032;2022-08-01T03:52:03;4.60;;;4.20;;
1507;SDS011;745;48.586;10.032;2022-08-01T03:56:37;4.67;;;4.27;;
1507;SDS011;745;48.586;10.032;2022-08-01T04:01:08;4.00;;;3.60;;
1507;SDS011;745;48.586;10.032;2022-08-01T04:05:42;4.60;;;4.17;;
1507;SDS011;745;48.586;10.032;2022-08-01T04:10:13;3.90;;;3.60;;
1507;SDS011;745;48.586;10.032;2022-08-01T04:14:44;3.70;;;3.40;;
1507;SDS011;745;48.586;10.032;2022-08-01T04:19:14;4.00;;;3.60;;
1507;SDS011;745;48.586;10.032;2022-08-01T04:23:45;4.23;;;3.90;;
1507;SDS011;745;48.586;10.032;2022-08-01T04:28:16;3.70;;;3.40;;
1507;SDS011;745;48.586;10.032;2022-08-01T04:32:48;4.20;;;3.80;;
1507;SDS011;745;48.586;10.032;2022-08-01T04:37:19;4.57;;;4.10;;
1507;SDS011;745;48.586;10.032;2022-08-01T04:41:50;4.83;;;4.37;;
1507;SDS011;745;48.586;10.032;2022-08-01T04:46:21;3.80;;;3.50;;
1507;SDS011;745;48.586;10.032;2022-08-01T04:50:52;4.00;;;3.60;;
1507;SDS011;745;48.586;10.032;2022-08-01T04:55:23;4.97;;;4.47;;
1507;SDS011;745;48.586;10.032;2022-08-01T04:59:53;3.80;;;3.50;;
1507;SDS011;745;48.586;10.032;2022-08-01T05:04:31;4.57;;;4.20;;
1507;SDS011;745;48.586;10.032;2022-08-01T05:09:02;4.47;;;4.00;;
1507;SDS011;745;48.586;10.032;2022-08-01T05:13:35;4.37;;;3.97;;
1507;SDS011;745;48.586;10.032;2022-08-01T05:18:05;4.77;;;4.37;;
1507;SDS011;745;48.586;10.032;2022-08-01T05:22:37;4.60;;;4.20;;
1507;SDS011;745;48.586;10.032;2022-08-01T05:27:07;3.53;;;3.33;;
1507;SDS011;745;48.586;10.032;2022-08-01T05:31:38;3.77;;;3.47;;
1507;SDS011;745;48.586;10.032;2022-08-01T05:36:09;3.60;;;3.30;;
1507;SDS011;745;48.586;10.032;2022-08-01T05:40:39;3.40;;;3.10;;
1507;SDS011;745;48.586;10.032;2022-08-01T05:45:10;3.03;;;2.83;;
1507;SDS011;745;48.586;10.032;2022-08-01T05:49:40;2.93;;;2.73;;
1507;SDS011;745;48.586;10.032;2022-08-01T05:54:11;3.10;;;2.80;;
1507;SDS011;745;48.586;10.032;2022-08-01T05:58:41;2.70;;;2.50;;
1507;SDS011;745;48.586;10.032;2022-08-01T06:03:14;3.03;;;2.83;;
1507;SDS011;745;48.586;10.032;2022-08-01T06:07:44;3.40;;;3.10;;
1507;SDS011;745;48.586;10.032;2022-08-01T06:12:14;3.27;;;3.07;;
1507;SDS011;745;48.586;10.032;2022-08-01T06:16:45;3.03;;;2.80;;
1507;SDS011;745;48.586;10.032;2022-08-01T06:21:23;3.50;;;2.80;;
1507;SDS011;745;48.586;10.032;2022-08-01T06:25:54;3.07;;;2.87;;
1507;SDS011;745;48.586;10.032;2022-08-01T06:30:25;3.20;;;2.70;;
1507;SDS011;745;48.586;10.032;2022-08-01T06:34:56;2.77;;;2.57;;
1507;SDS011;745;48.586;10.032;2022-08-01T06:39:27;3.03;;;2.73;;
1507;SDS011;745;48.586;10.032;2022-08-01T06:44:12;3.40;;;3.00;;
1507;SDS011;745;48.586;10.032;2022-08-01T06:48:43;3.60;;;3.30;;
1507;SDS011;745;48.586;10.032;2022-08-01T06:53:13;2.80;;;2.60;;
1507;SDS011;745;48.586;10.032;2022-08-01T06:57:48;3.53;;;3.23;;
1507;SDS011;745;48.586;10.032;2022-08-01T07:02:19;2.80;;;2.60;;
1507;SDS011;745;48.586;10.032;2022-08-01T07:06:49;2.67;;;2.43;;
1507;SDS011;745;48.586;10.032;2022-08-01T07:11:21;2.73;;;2.53;;
1507;SDS011;745;48.586;10.032;2022-08-01T07:15:53;2.60;;;2.40;;
1507;SDS011;745;48.586;10.032;2022-08-01T07:20:24;4.20;;;2.93;;
1507;SDS011;745;48.586;10.032;2022-08-01T07:24:54;2.30;;;2.10;;
1507;SDS011;745;48.586;10.032;2022-08-01T07:29:25;2.33;;;2.13;;
1507;SDS011;745;48.586;10.032;2022-08-01T07:33:55;3.30;;;2.57;;
1507;SDS011;745;48.586;10.032;2022-08-01T07:38:26;2.73;;;2.53;;
1507;SDS011;745;48.586;10.032;2022-08-01T07:42:56;2.57;;;2.37;;
1507;SDS011;745;48.586;10.032;2022-08-01T07:47:27;2.43;;;2.23;;
1507;SDS011;745;48.586;10.032;2022-08-01T07:51:58;2.90;;;2.43;;
1507;SDS011;745;48.586;10.032;2022-08-01T07:56:28;2.30;;;2.10;;
1507;SDS011;745;48.586;10.032;2022-08-01T08:00:59;3.73;;;2.30;;
1507;SDS011;745;48.586;10.032;2022-08-01T08:05:30;2.60;;;2.40;;
1507;SDS011;745;48.586;10.032;2022-08-01T08:10:04;2.97;;;2.67;;
1507;SDS011;745;48.586;10.032;2022-08-01T08:14:36;3.13;;;2.73;;
1507;SDS011;745;48.586;10.032;2022-08-01T08:19:07;2.50;;;2.30;;
1507;SDS011;745;48.586;10.032;2022-08-01T08:23:38;2.50;;;2.30;;
1507;SDS011;745;48.586;10.032;2022-08-01T08:28:27;2.70;;;2.50;;
1507;SDS011;745;48.586;10.032;2022-08-01T08:32:58;2.87;;;2.67;;
1507;SDS011;745;48.586;10.032;2022-08-01T08:37:28;3.00;;;2.70;;
1507;SDS011;745;48.586;10.032;2022-08-01T08:41:59;2.77;;;2.57;;
1507;SDS011;745;48.586;10.032;2022-08-01T08:46:32;3.20;;;2.90;;
1507;SDS011;745;48.586;10.032;2022-08-01T08:51:03;3.00;;;2.70;;
1507;SDS011;745;48.586;10.032;2022-08-01T08:55:34;3.10;;;2.80;;
1507;SDS011;745;48.586;10.032;2022-08-01T09:00:05;3.63;;;3.00;;
1507;SDS011;745;48.586;10.032;2022-08-01T09:04:36;3.87;;;2.87;;
1507;SDS011;745;48.586;10.032;2022-08-01T09:09:09;2.90;;;2.70;;
1507;SDS011;745;48.586;10.032;2022-08-01T09:13:40;2.60;;;2.40;;
1507;SDS011;745;48.586;10.032;2022-08-01T09:18:26;3.53;;;3.30;;
1507;SDS011;745;48.586;10.032;2022-08-01T09:23:02;3.13;;;2.90;;
1507;SDS011;745;48.586;10.032;2022-08-01T09:27:34;3.37;;;3.00;;
1507;SDS011;745;48.586;10.032;2022-08-01T09:32:05;3.47;;;3.17;;
1507;SDS011;745;48.586;10.032;2022-08-01T09:36:43;3.10;;;2.90;;
1507;SDS011;745;48.586;10.032;2022-08-01T09:41:28;4.13;;;3.30;;
1507;SDS011;745;48.586;10.032;2022-08-01T09:46:05;3.00;;;2.80;;
1507;SDS011;745;48.586;10.032;2022-08-01T09:50:42;3.67;;;2.80;;
1507;SDS011;745;48.586;10.032;2022-08-01T09:55:13;3.60;;;3.30;;
1507;SDS011;745;48.586;10.032;2022-08-01T09:59:52;3.20;;;2.90;;
1507;SDS011;745;48.586;10.032;2022-08-01T10:04:25;2.97;;;2.67;;
1507;SDS011;745;48.586;10.032;2022-08-01T10:08:57;3.10;;;2.80;;
1507;SDS011;745;48.586;10.032;2022-08-01T10:13:27;3.60;;;3.30;;
1507;SDS011;745;48.586;10.032;2022-08-01T10:18:00;3.20;;;3.00;;
1507;SDS011;745;48.586;10.032;2022-08-01T10:22:31;3.83;;;3.03;;
1507;SDS011;745;48.586;10.032;2022-08-01T10:27:08;3.63;;;3.23;;
1507;SDS011;745;48.586;10.032;2022-08-01T10:31:39;3.70;;;3.30;;
1507;SDS011;745;48.586;10.032;2022-08-01T10:36:10;3.50;;;3.20;;
1507;SDS011;745;48.586;10.032;2022-08-01T10:40:41;3.43;;;3.10;;
1507;SDS011;745;48.586;10.032;2022-08-01T10:45:13;3.00;;;2.80;;
1507;SDS011;745;48.586;10.032;2022-08-01T10:49:49;2.93;;;2.73;;
1507;SDS011;745;48.586;10.032;2022-08-01T10:54:23;5.60;;;2.80;;
1507;SDS011;745;48.586;10.032;2022-08-01T10:59:00;3.17;;;2.87;;
1507;SDS011;745;48.586;10.032;2022-08-01T11:03:33;3.70;;;2.93;;
1507;SDS011;745;48.586;10.032;2022-08-01T11:08:08;2.97;;;2.77;;
1507;SDS011;745;48.586;10.032;2022-08-01T11:12:41;3.00;;;2.70;;
1507;SDS011;745;48.586;10.032;2022-08-01T11:22:03;3.93;;;3.63;;
1507;SDS011;745;48.586;10.032;2022-08-01T11:26:34;3.30;;;3.07;;
1507;SDS011;745;48.586;10.032;2022-08-01T11:40:44;3.90;;;3.37;;
1507;SDS011;745;48.586;10.032;2022-08-01T11:45:15;4.20;;;3.53;;
1507;SDS011;745;48.586;10.032;2022-08-01T11:49:46;3.57;;;3.27;;
1507;SDS011;745;48.586;10.032;2022-08-01T11:54:21;4.10;;;3.70;;
1507;SDS011;745;48.586;10.032;2022-08-01T11:58:58;3.63;;;3.30;;
1507;SDS011;745;48.586;10.032;2022-08-01T12:03:30;4.80;;;3.30;;
1507;SDS011;745;48.586;10.032;2022-08-01T12:08:02;3.23;;;2.93;;
1507;SDS011;745;48.586;10.032;2022-08-01T12:12:35;3.23;;;3.03;;
1507;SDS011;745;48.586;10.032;2022-08-01T12:17:07;3.97;;;3.60;;
1507;SDS011;745;48.586;10.032;2022-08-01T12:21:38;4.07;;;3.13;;
1507;SDS011;745;48.586;10.032;2022-08-01T12:26:08;3.70;;;3.40;;
1507;SDS011;745;48.586;10.032;2022-08-01T12:30:40;4.23;;;3.83;;
1507;SDS011;745;48.586;10.032;2022-08-01T12:35:14;4.00;;;3.60;;
1507;SDS011;745;48.586;10.032;2022-08-01T12:39:46;4.10;;;3.80;;
1507;SDS011;745;48.586;10.032;2022-08-01T12:44:17;3.80;;;3.50;;
1507;SDS011;745;48.586;10.032;2022-08-01T12:48:47;4.57;;;4.13;;
1507;SDS011;745;48.586;10.032;2022-08-01T12:53:18;4.30;;;4.00;;
1507;SDS011;745;48.586;10.032;2022-08-01T12:57:50;5.13;;;4.50;;
1507;SDS011;745;48.586;10.032;2022-08-01T13:02:33;3.80;;;3.50;;
1507;SDS011;745;48.586;10.032;2022-08-01T13:07:04;3.90;;;3.60;;
1507;SDS011;745;48.586;10.032;2022-08-01T13:11:35;4.17;;;3.87;;
1507;SDS011;745;48.586;10.032;2022-08-01T13:16:07;4.00;;;3.70;;
1507;SDS011;745;48.586;10.032;2022-08-01T13:20:38;5.03;;;4.63;;
1507;SDS011;745;48.586;10.032;2022-08-01T13:25:10;4.67;;;4.27;;
1507;SDS011;745;48.586;10.032;2022-08-01T13:29:44;5.17;;;4.67;;
1507;SDS011;745;48.586;10.032;2022-08-01T13:34:15;4.70;;;4.33;;
1507;SDS011;745;48.586;10.032;2022-08-01T13:38:46;4.70;;;4.00;;
1507;SDS011;745;48.586;10.032;2022-08-01T13:43:35;3.93;;;3.63;;
1507;SDS011;745;48.586;10.032;2022-08-01T13:48:05;4.40;;;4.10;;
1507;SDS011;745;48.586;10.032;2022-08-01T13:52:36;4.50;;;4.10;;
1507;SDS011;745;48.586;10.032;2022-08-01T13:57:07;3.93;;;3.63;;
1507;SDS011;745;48.586;10.032;2022-08-01T14:01:38;4.00;;;3.70;;
1507;SDS011;745;48.586;10.032;2022-08-01T14:06:08;3.87;;;3.60;;
1507;SDS011;745;48.586;10.032;2022-08-01T14:10:39;4.07;;;3.77;;
1507;SDS011;745;48.586;10.032;2022-08-01T14:15:09;5.10;;;4.70;;
1507;SDS011;745;48.586;10.032;2022-08-01T14:19:40;4.40;;;4.10;;
1507;SDS011;745;48.586;10.032;2022-08-01T14:24:10;4.70;;;4.30;;
1507;SDS011;745;48.586;10.032;2022-08-01T14:28:41;4.30;;;4.00;;
1507;SDS011;745;48.586;10.032;2022-08-01T14:33:11;3.80;;;3.50;;
1507;SDS011;745;48.586;10.032;2022-08-01T14:37:42;4.10;;;3.73;;
1507;SDS011;745;48.586;10.032;2022-08-01T14:42:13;3.50;;;3.30;;
1507;SDS011;745;48.586;10.032;2022-08-01T14:46:43;4.07;;;3.77;;
1507;SDS011;745;48.586;10.032;2022-08-01T14:51:14;3.13;;;2.93;;
1507;SDS011;745;48.586;10.032;2022-08-01T14:55:45;3.40;;;3.10;;
1507;SDS011;745;48.586;10.032;2022-08-01T15:00:16;4.20;;;3.87;;
1507;SDS011;745;48.586;10.032;2022-08-01T15:04:47;3.77;;;3.47;;
1507;SDS011;745;48.586;10.032;2022-08-01T15:09:18;4.27;;;3.83;;
1507;SDS011;745;48.586;10.032;2022-08-01T15:13:49;3.53;;;3.23;;
1507;SDS011;745;48.586;10.032;2022-08-01T15:18:39;3.40;;;3.20;;
1507;SDS011;745;48.586;10.032;2022-08-01T15:23:12;4.40;;;4.00;;
1507;SDS011;745;48.586;10.032;2022-08-01T15:27:43;3.40;;;3.20;;
1507;SDS011;745;48.586;10.032;2022-08-01T15:32:14;4.00;;;3.70;;
1507;SDS011;745;48.586;10.032;2022-08-01T15:36:45;3.30;;;3.10;;
1507;SDS011;745;48.586;10.032;2022-08-01T15:41:15;3.40;;;3.20;;
1507;SDS011;745;48.586;10.032;2022-08-01T15:45:46;3.93;;;3.63;;
1507;SDS011;745;48.586;10.032;2022-08-01T15:50:16;3.57;;;3.27;;
1507;SDS011;745;48.586;10.032;2022-08-01T15:54:47;3.60;;;3.30;;
1507;SDS011;745;48.586;10.032;2022-08-01T15:59:17;3.37;;;3.17;;
1507;SDS011;745;48.586;10.032;2022-08-01T16:03:48;3.00;;;2.80;;
1507;SDS011;745;48.586;10.032;2022-08-01T16:08:18;3.20;;;2.90;;
1507;SDS011;745;48.586;10.032;2022-08-01T16:12:49;2.90;;;2.70;;
1507;SDS011;745;48.586;10.032;2022-08-01T16:17:19;2.97;;;2.77;;
1507;SDS011;745;48.586;10.032;2022-08-01T16:21:49;3.30;;;3.10;;
1507;SDS011;745;48.586;10.032;2022-08-01T16:26:21;3.13;;;2.93;;
1507;SDS011;745;48.586;10.032;2022-08-01T16:30:51;3.37;;;3.17;;
1507;SDS011;745;48.586;10.032;2022-08-01T16:35:22;3.40;;;3.17;;
1507;SDS011;745;48.586;10.032;2022-08-01T16:39:53;4.37;;;4.00;;
1507;SDS011;745;48.586;10.032;2022-08-01T16:44:23;3.93;;;3.53;;
1507;SDS011;745;48.586;10.032;2022-08-01T16:48:54;4.83;;;4.10;;
1507;SDS011;745;48.586;10.032;2022-08-01T16:53:24;4.90;;;4.50;;
1507;SDS011;745;48.586;10.032;2022-08-01T16:57:55;4.50;;;4.17;;
1507;SDS011;745;48.586;10.032;2022-08-01T17:02:26;4.07;;;3.77;;
1507;SDS011;745;48.586;10.032;2022-08-01T17:06:57;4.43;;;4.10;;
1507;SDS011;745;48.586;10.032;2022-08-01T17:11:27;5.50;;;3.70;;
1507;SDS011;745;48.586;10.032;2022-08-01T17:15:58;3.90;;;3.60;;
1507;SDS011;745;48.586;10.032;2022-08-01T17:20:28;3.80;;;3.50;;
1507;SDS011;745;48.586;10.032;2022-08-01T17:24:59;3.60;;;3.30;;
1507;SDS011;745;48.586;10.032;2022-08-01T17:29:30;3.67;;;3.37;;
1507;SDS011;745;48.586;10.032;2022-08-01T17:34:01;3.43;;;3.13;;
1507;SDS011;745;48.586;10.032;2022-08-01T17:38:33;3.13;;;2.70;;
1507;SDS011;745;48.586;10.032;2022-08-01T17:43:05;3.27;;;2.97;;
1507;SDS011;745;48.586;10.032;2022-08-01T17:47:36;3.50;;;3.20;;
1507;SDS011;745;48.586;10.032;2022-08-01T17:52:06;3.30;;;3.00;;
1507;SDS011;745;48.586;10.032;2022-08-01T17:56:37;3.00;;;2.80;;
1507;SDS011;745;48.586;10.032;2022-08-01T18:01:08;3.20;;;2.90;;
1507;SDS011;745;48.586;10.032;2022-08-01T18:05:38;3.30;;;3.00;;
1507;SDS011;745;48.586;10.032;2022-08-01T18:10:09;2.73;;;2.53;;
1507;SDS011;745;48.586;10.032;2022-08-01T18:14:41;3.50;;;3.20;;
1507;SDS011;745;48.586;10.032;2022-08-01T18:19:12;3.30;;;3.10;;
1507;SDS011;745;48.586;10.032;2022-08-01T18:23:42;3.90;;;3.47;;
1507;SDS011;745;48.586;10.032;2022-08-01T18:28:13;4.00;;;3.70;;
1507;SDS011;745;48.586;10.032;2022-08-01T18:32:44;4.37;;;4.00;;
1507;SDS011;745;48.586;10.032;2022-08-01T18:37:14;3.63;;;3.33;;
1507;SDS011;745;48.586;10.032;2022-08-01T18:41:45;4.73;;;4.03;;
1507;SDS011;745;48.586;10.032;2022-08-01T18:46:16;3.50;;;3.20;;
1507;SDS011;745;48.586;10.032;2022-08-01T18:50:47;3.67;;;3.37;;
1507;SDS011;745;48.586;10.032;2022-08-01T18:55:17;3.37;;;3.07;;
1507;SDS011;745;48.586;10.032;2022-08-01T18:59:48;3.03;;;2.83;;
1507;SDS011;745;48.586;10.032;2022-08-01T19:04:19;3.27;;;3.00;;
1507;SDS011;745;48.586;10.032;2022-08-01T19:08:50;2.90;;;2.70;;
1507;SDS011;745;48.586;10.032;2022-08-01T19:13:21;4.67;;;2.97;;
1507;SDS011;745;48.586;10.032;2022-08-01T19:17:54;3.00;;;2.80;;
1507;SDS011;745;48.586;10.032;2022-08-01T19:22:25;3.17;;;2.87;;
1507;SDS011;745;48.586;10.032;2022-08-01T19:26:57;3.73;;;3.27;;
1507;SDS011;745;48.586;10.032;2022-08-01T19:31:30;3.73;;;3.43;;
1507;SDS011;745;48.586;10.032;2022-08-01T19:36:02;3.10;;;2.90;;
1507;SDS011;745;48.586;10.032;2022-08-01T19:40:33;3.37;;;3.07;;
1507;SDS011;745;48.586;10.032;2022-08-01T19:45:04;3.50;;;3.20;;
1507;SDS011;745;48.586;10.032;2022-08-01T19:49:35;3.27;;;3.07;;
1507;SDS011;745;48.586;10.032;2022-08-01T19:54:06;2.80;;;2.60;;
1507;SDS011;745;48.586;10.032;2022-08-01T19:58:40;3.30;;;3.00;;
1507;SDS011;745;48.586;10.032;2022-08-01T20:03:15;2.73;;;2.53;;
1507;SDS011;745;48.586;10.032;2022-08-01T20:07:47;2.97;;;2.60;;
1507;SDS011;745;48.586;10.032;2022-08-01T20:12:19;2.90;;;2.60;;
1507;SDS011;745;48.586;10.032;2022-08-01T20:16:51;3.17;;;2.60;;
1507;SDS011;745;48.586;10.032;2022-08-01T20:21:24;4.10;;;3.70;;
1507;SDS011;745;48.586;10.032;2022-08-01T20:25:55;4.43;;;3.33;;
1507;SDS011;745;48.586;10.032;2022-08-01T20:30:29;4.67;;;4.17;;
1507;SDS011;745;48.586;10.032;2022-08-01T20:35:01;4.80;;;4.30;;
1507;SDS011;745;48.586;10.032;2022-08-01T20:39:33;4.70;;;4.30;;
1507;SDS011;745;48.586;10.032;2022-08-01T20:44:05;4.57;;;4.00;;
1507;SDS011;745;48.586;10.032;2022-08-01T20:48:37;5.17;;;4.30;;
1507;SDS011;745;48.586;10.032;2022-08-01T20:53:08;4.97;;;4.50;;
1507;SDS011;745;48.586;10.032;2022-08-01T20:57:40;4.27;;;3.87;;
1507;SDS011;745;48.586;10.032;2022-08-01T21:12:11;2.10;;;1.83;;
1507;SDS011;745;48.586;10.032;2022-08-01T21:16:53;2.47;;;2.27;;
1507;SDS011;745;48.586;10.032;2022-08-01T21:21:27;3.00;;;2.70;;
1507;SDS011;745;48.586;10.032;2022-08-01T21:25:59;2.87;;;2.60;;
1507;SDS011;745;48.586;10.032;2022-08-01T21:30:31;2.90;;;2.70;;
1507;SDS011;745;48.586;10.032;2022-08-01T21:35:03;2.50;;;2.27;;
1507;SDS011;745;48.586;10.032;2022-08-01T21:39:35;2.00;;;1.90;;
1507;SDS011;745;48.586;10.032;2022-08-01T21:44:06;2.37;;;1.97;;
1507;SDS011;745;48.586;10.032;2022-08-01T21:48:37;1.80;;;1.70;;
1507;SDS011;745;48.586;10.032;2022-08-01T22:02:40;2.40;;;1.70;;
1507;SDS011;745;48.586;10.032;2022-08-01T22:07:15;2.00;;;1.80;;
1507;SDS011;745;48.586;10.032;2022-08-01T22:11:45;1.67;;;1.57;;
1507;SDS011;745;48.586;10.032;2022-08-01T22:16:16;2.67;;;1.60;;
1507;SDS011;745;48.586;10.032;2022-08-01T22:20:47;1.57;;;1.47;;
1507;SDS011;745;48.586;10.032;2022-08-01T22:25:19;1.57;;;1.47;;
1507;SDS011;745;48.586;10.032;2022-08-01T22:30:01;3.43;;;1.43;;
1507;SDS011;745;48.586;10.032;2022-08-01T22:34:36;1.50;;;1.40;;
1507;SDS011;745;48.586;10.032;2022-08-01T22:39:07;1.87;;;1.67;;
1507;SDS011;745;48.586;10.032;2022-08-01T22:48:13;1.50;;;1.40;;
1507;SDS011;745;48.586;10.032;2022-08-01T22:53:21;2.23;;;2.03;;
1507;SDS011;745;48.586;10.032;2022-08-01T22:58:00;2.17;;;1.87;;
1507;SDS011;745;48.586;10.032;2022-08-01T23:02:35;1.80;;;1.70;;
1507;SDS011;745;48.586;10.032;2022-08-01T23:07:07;1.70;;;1.60;;
1507;SDS011;745;48.586;10.032;2022-08-01T23:11:38;2.60;;;2.40;;
1507;SDS011;745;48.586;10.032;2022-08-01T23:16:08;3.10;;;2.03;;
1507;SDS011;745;48.586;10.032;2022-08-01T23:20:40;2.27;;;2.07;;
1507;SDS011;745;48.586;10.032;2022-08-01T23:25:12;2.27;;;2.13;;
1507;SDS011;745;48.586;10.032;2022-08-01T23:29:47;2.30;;;2.13;;
1507;SDS011;745;48.586;10.032;2022-08-01T23:34:19;2.40;;;2.20;;
1507;SDS011;745;48.586;10.032;2022-08-01T23:38:49;2.27;;;2.07;;
1507;SDS011;745;48.586;10.032;2022-08-01T23:43:20;2.43;;;2.23;;
1507;SDS011;745;48.586;10.032;2022-08-01T23:47:50;2.60;;;2.40;;
1507;SDS011;745;48.586;10.032;2022-08-01T23:52:21;3.00;;;2.70;;
1507;SDS011;745;48.586;10.032;2022-08-01T23:56:52;2.80;;;2.60;;
